Susquehanna, Pennsylvania
Current Conditions -  °F | °C
As of 11:53 PM on Sunday 19 Oct 2014 (Local Time) from KBGM Reporting Station
Clear Clear  
Wind Chill: 26°   Ceiling: Unl
Heat Index: 32°   Visibility: 10mi
Dew Point: 26°   Wind: 6mph
Humidity: 79%   Direction: 230°SW
Pressure: 30.02"   Gusts: NA
Location:  41.94°N, 75.6°W
Report Text: KBGM 200353Z AUTO 23005KT 10SM CLR 00/M03 A3002 RMK AO2 SLP181 T00001033
Loading
Personal Weather Stations






























Interactive Weather Map
Tropical Storm Tracking
New forecast layout! Learn more

10-Day Weather Forecast

Advertisements
Track Severe Weather on mobile